Gassville, Arkansas
Current Conditions -  °F | °C
As of 9:55 AM on Friday 31 Oct 2014 (Local Time) from KFLP Reporting Station
Overcast Overcast  
Wind Chill: 52°   Ceiling: 2700
Heat Index: 52°   Visibility: 10mi
Dew Point: 37°   Wind: 15mph
Humidity: 58%   Direction: 340°NNW
Pressure: 30.27"   Gusts: 21mph
Location:  36.28°N, 92.49°W
Report Text: KFLP 311455Z AUTO 34013G18KT 310V010 10SM BKN027 OVC034 11/03 A3027 RMK AO1 52030
Loading
Personal Weather Stations






























Interactive Weather Map
Tropical Storm Tracking
New forecast layout! Learn more

10-Day Weather Forecast

Advertisements
Track Severe Weather on mobile